Time;durP1;ratioP1;P1;durP2;ratioP2;P2;SDS_P1;SDS_P2;PMS_P1;PMS_P2;Temp;Humidity;BMP_temperature;BMP_pressure;BME280_temperature;BME280_humidity;BME280_pressure;Samples;Min_cycle;Max_cycle;Signal;HPM_P1;HPM_P2
2022/10/15 00:00:52;;;;;;;24.02;17.20;;;;;;;;;;5003174;28;20340;-62
2022/10/15 00:03:17;;;;;;;27.85;17.83;;;;;;;;;;4998439;28;20300;-62
2022/10/15 00:05:43;;;;;;;27.40;18.60;;;;;;;;;;4987058;28;20597;-62
2022/10/15 00:08:08;;;;;;;23.90;16.98;;;;;;;;;;4992854;28;20278;-62
2022/10/15 00:10:34;;;;;;;26.23;18.02;;;;;;;;;;4998797;28;20235;-62
2022/10/15 00:12:59;;;;;;;28.00;17.65;;;;;;;;;;4999741;28;20224;-62
2022/10/15 00:15:24;;;;;;;27.83;18.50;;;;;;;;;;4999236;28;20244;-62
2022/10/15 00:17:50;;;;;;;31.73;18.80;;;;;;;;;;4999997;28;20213;-61
2022/10/15 00:20:15;;;;;;;62.65;21.10;;;;;;;;;;4997801;28;20679;-62
2022/10/15 00:22:40;;;;;;;112.32;23.60;;;;;;;;;;4999678;28;20220;-62
2022/10/15 00:25:06;;;;;;;74.53;22.60;;;;;;;;;;4996033;28;20207;-62
2022/10/15 00:27:32;;;;;;;126.97;23.02;;;;;;;;;;4992503;28;20216;-62
2022/10/15 00:29:59;;;;;;;176.48;25.55;;;;;;;;;;4992555;28;20247;-62
2022/10/15 00:32:24;;;;;;;137.73;25.17;;;;;;;;;;4994982;28;20268;-62
2022/10/15 00:34:49;;;;;;;89.03;20.52;;;;;;;;;;4998437;28;20212;-61
2022/10/15 00:37:16;;;;;;;185.85;24.67;;;;;;;;;;4998912;28;20220;-62
2022/10/15 00:39:41;;;;;;;105.68;21.52;;;;;;;;;;4999181;28;20671;-62
2022/10/15 00:42:08;;;;;;;140.77;23.20;;;;;;;;;;4997887;28;20218;-62
2022/10/15 00:44:45;;;;;;;270.15;29.80;;;;;;;;;;4998908;28;20235;-62
2022/10/15 00:47:13;;;;;;;119.88;20.67;;;;;;;;;;4994533;28;20224;-62
2022/10/15 00:49:39;;;;;;;100.35;18.70;;;;;;;;;;4991158;28;21151;-62
2022/10/15 00:52:04;;;;;;;40.35;17.27;;;;;;;;;;4991248;28;20286;-62
2022/10/15 00:54:30;;;;;;;39.80;18.40;;;;;;;;;;4993709;28;20287;-62
2022/10/15 00:56:56;;;;;;;38.08;17.45;;;;;;;;;;4997495;28;20224;-62
2022/10/15 00:59:21;;;;;;;32.47;16.67;;;;;;;;;;4998749;28;20727;-62
2022/10/15 01:01:46;;;;;;;32.75;16.20;;;;;;;;;;4997681;28;20240;-62
2022/10/15 01:04:12;;;;;;;30.10;16.08;;;;;;;;;;4997720;28;20219;-62
2022/10/15 01:06:37;;;;;;;19.13;13.88;;;;;;;;;;4998911;28;20729;-62
2022/10/15 01:09:02;;;;;;;19.90;14.30;;;;;;;;;;4996647;28;20209;-62
2022/10/15 01:11:33;;;;;;;59.67;16.35;;;;;;;;;;4992894;28;20659;-62
2022/10/15 01:14:02;;;;;;;32.90;14.60;;;;;;;;;;4992082;28;20224;-62
2022/10/15 01:16:31;;;;;;;39.38;15.65;;;;;;;;;;4989327;28;20207;-62
2022/10/15 01:19:05;;;;;;;20.00;14.93;;;;;;;;;;4998129;28;20220;-62
2022/10/15 01:21:34;;;;;;;16.48;13.73;;;;;;;;;;4996843;28;20610;-62
2022/10/15 01:24:11;;;;;;;17.27;13.73;;;;;;;;;;4996916;28;20629;-62
2022/10/15 01:26:40;;;;;;;24.50;14.90;;;;;;;;;;4996930;28;20208;-62
2022/10/15 01:29:13;;;;;;;23.85;14.75;;;;;;;;;;4997310;28;20354;-62
2022/10/15 01:31:41;;;;;;;32.28;15.68;;;;;;;;;;4998284;28;20336;-62
2022/10/15 01:34:10;;;;;;;25.38;15.35;;;;;;;;;;4990369;28;20307;-62
2022/10/15 01:36:36;;;;;;;18.63;13.35;;;;;;;;;;4989173;28;20209;-62
2022/10/15 01:39:06;;;;;;;21.10;14.20;;;;;;;;;;4989873;28;21159;-62
2022/10/15 01:41:36;;;;;;;18.20;15.10;;;;;;;;;;4998513;28;20694;-62
2022/10/15 01:44:02;;;;;;;23.83;14.77;;;;;;;;;;4997749;28;20266;-62
2022/10/15 01:46:30;;;;;;;46.67;15.38;;;;;;;;;;4998461;28;20282;-62
2022/10/15 01:48:56;;;;;;;17.02;13.70;;;;;;;;;;4997613;28;20227;-62
2022/10/15 01:51:21;;;;;;;18.67;14.38;;;;;;;;;;4995930;28;20642;-62
2022/10/15 01:53:46;;;;;;;15.60;13.90;;;;;;;;;;4998288;28;20355;-62
2022/10/15 01:56:13;;;;;;;14.10;12.27;;;;;;;;;;4993146;28;20212;-62
2022/10/15 01:58:40;;;;;;;16.48;13.38;;;;;;;;;;4989301;28;20910;-62
2022/10/15 02:01:05;;;;;;;18.70;13.23;;;;;;;;;;4988987;28;20895;-62
2022/10/15 02:03:30;;;;;;;15.30;11.80;;;;;;;;;;4996128;28;20247;-62
2022/10/15 02:05:58;;;;;;;15.90;13.07;;;;;;;;;;5000889;28;20223;-62
2022/10/15 02:08:27;;;;;;;19.77;15.63;;;;;;;;;;5001023;28;20205;-62
2022/10/15 02:10:54;;;;;;;14.05;12.02;;;;;;;;;;5001348;28;20691;-62
2022/10/15 02:13:24;;;;;;;16.05;13.07;;;;;;;;;;5000254;28;20228;-62
2022/10/15 02:15:59;;;;;;;15.52;12.55;;;;;;;;;;5001421;28;20742;-62
2022/10/15 02:18:29;;;;;;;18.38;13.43;;;;;;;;;;4996741;28;20218;-62
2022/10/15 02:20:57;;;;;;;16.70;13.60;;;;;;;;;;4986022;28;20216;-62
2022/10/15 02:23:24;;;;;;;18.85;13.18;;;;;;;;;;4988908;28;20734;-62
2022/10/15 02:25:49;;;;;;;14.23;12.07;;;;;;;;;;4993019;28;20710;-62
2022/10/15 02:28:15;;;;;;;13.98;12.32;;;;;;;;;;4996895;28;20227;-62
2022/10/15 02:30:40;;;;;;;16.52;14.07;;;;;;;;;;4996357;28;20239;-62
2022/10/15 02:33:06;;;;;;;18.70;15.10;;;;;;;;;;4996231;28;20711;-62
2022/10/15 02:35:31;;;;;;;16.30;12.95;;;;;;;;;;4997570;28;20596;-62
2022/10/15 02:37:57;;;;;;;16.42;13.43;;;;;;;;;;4996237;28;20290;-62
2022/10/15 02:40:23;;;;;;;17.80;13.68;;;;;;;;;;4993491;28;20221;-62
2022/10/15 02:42:50;;;;;;;19.27;14.27;;;;;;;;;;4989998;28;20208;-62
2022/10/15 02:45:15;;;;;;;20.48;13.52;;;;;;;;;;4988600;28;20720;-62
2022/10/15 02:47:40;;;;;;;14.70;12.57;;;;;;;;;;4992458;28;20684;-62
2022/10/15 02:50:05;;;;;;;17.83;13.32;;;;;;;;;;4996543;28;20224;-62
2022/10/15 02:52:31;;;;;;;16.42;12.82;;;;;;;;;;4999474;28;20221;-62
2022/10/15 02:54:56;;;;;;;18.17;12.95;;;;;;;;;;4999877;28;20220;-62
2022/10/15 02:57:21;;;;;;;16.15;11.90;;;;;;;;;;5000748;28;20616;-62
2022/10/15 02:59:46;;;;;;;16.85;14.00;;;;;;;;;;5000682;28;20220;-62
2022/10/15 03:02:12;;;;;;;19.23;13.73;;;;;;;;;;4999555;28;20242;-62
2022/10/15 03:04:38;;;;;;;16.13;12.18;;;;;;;;;;4994117;28;20208;-62
2022/10/15 03:07:03;;;;;;;16.92;13.25;;;;;;;;;;4993528;28;20337;-62
2022/10/15 03:09:28;;;;;;;15.85;13.25;;;;;;;;;;4993761;28;20350;-62
2022/10/15 03:11:53;;;;;;;15.63;12.85;;;;;;;;;;5000673;28;20236;-62
2022/10/15 03:14:19;;;;;;;16.95;13.73;;;;;;;;;;5000500;28;20867;-62
2022/10/15 03:16:44;;;;;;;16.65;12.85;;;;;;;;;;5000428;28;21073;-61
2022/10/15 03:19:09;;;;;;;16.23;13.07;;;;;;;;;;5000711;28;20215;-62
2022/10/15 03:21:34;;;;;;;15.30;13.27;;;;;;;;;;5000602;28;21115;-62
2022/10/15 03:24:00;;;;;;;17.13;13.15;;;;;;;;;;5000364;28;20220;-62
2022/10/15 03:26:25;;;;;;;17.27;13.07;;;;;;;;;;4994699;28;20215;-62
2022/10/15 03:28:50;;;;;;;16.20;12.63;;;;;;;;;;4992803;28;20208;-62
2022/10/15 03:31:16;;;;;;;17.38;12.50;;;;;;;;;;4993129;28;20657;-62
2022/10/15 03:33:41;;;;;;;16.58;12.82;;;;;;;;;;4997880;28;20220;-62
2022/10/15 03:36:06;;;;;;;14.65;11.15;;;;;;;;;;4999061;28;20217;-62
2022/10/15 03:38:32;;;;;;;16.85;12.38;;;;;;;;;;5000405;28;20574;-62
2022/10/15 03:40:57;;;;;;;14.35;11.45;;;;;;;;;;5000890;28;20228;-62
2022/10/15 03:43:24;;;;;;;14.55;10.73;;;;;;;;;;4999581;28;20225;-62
2022/10/15 03:45:49;;;;;;;15.13;12.02;;;;;;;;;;4998867;28;20215;-62
2022/10/15 03:48:14;;;;;;;21.63;13.82;;;;;;;;;;4998124;28;20225;-62
2022/10/15 03:50:39;;;;;;;15.23;12.15;;;;;;;;;;4993133;28;20343;-62
2022/10/15 03:53:05;;;;;;;15.68;11.43;;;;;;;;;;4992598;28;20629;-62
2022/10/15 03:55:30;;;;;;;17.60;12.90;;;;;;;;;;4995376;28;20212;-62
2022/10/15 03:57:55;;;;;;;21.13;14.13;;;;;;;;;;4999056;28;20220;-62
2022/10/15 04:00:21;;;;;;;17.88;13.40;;;;;;;;;;4999677;28;20315;-62
2022/10/15 04:02:46;;;;;;;20.75;14.60;;;;;;;;;;4999304;28;20287;-62
2022/10/15 04:05:11;;;;;;;18.35;13.65;;;;;;;;;;4998627;28;20581;-62
2022/10/15 04:07:36;;;;;;;19.88;13.35;;;;;;;;;;4999614;28;20266;-62
2022/10/15 04:10:02;;;;;;;15.35;11.70;;;;;;;;;;4999474;28;20303;-62
2022/10/15 04:12:27;;;;;;;17.02;12.43;;;;;;;;;;4993246;28;20220;-62
2022/10/15 04:14:52;;;;;;;18.50;12.88;;;;;;;;;;4992524;28;20267;-62
2022/10/15 04:17:18;;;;;;;17.80;14.13;;;;;;;;;;4992865;28;20307;-62
2022/10/15 04:19:43;;;;;;;21.35;15.52;;;;;;;;;;4999023;28;20235;-62
2022/10/15 04:22:08;;;;;;;22.60;16.42;;;;;;;;;;5003692;28;20258;-62
2022/10/15 04:24:33;;;;;;;34.50;21.00;;;;;;;;;;5004097;28;20216;-63
2022/10/15 04:26:59;;;;;;;24.90;18.15;;;;;;;;;;5003726;28;20212;-61
2022/10/15 04:29:24;;;;;;;22.55;16.27;;;;;;;;;;5003744;28;20573;-62
2022/10/15 04:31:49;;;;;;;26.30;18.27;;;;;;;;;;5004095;28;20286;-62
2022/10/15 04:34:15;;;;;;;23.80;17.63;;;;;;;;;;4998115;28;20216;-62
2022/10/15 04:36:40;;;;;;;24.63;16.77;;;;;;;;;;4989219;28;20218;-62
2022/10/15 04:39:05;;;;;;;32.20;20.48;;;;;;;;;;4991302;28;20213;-62
2022/10/15 04:41:30;;;;;;;33.00;19.70;;;;;;;;;;4996832;28;20282;-62
2022/10/15 04:43:56;;;;;;;29.45;20.33;;;;;;;;;;4998976;28;21322;-62
2022/10/15 04:46:21;;;;;;;33.65;20.75;;;;;;;;;;4998140;28;20213;-62
2022/10/15 04:48:47;;;;;;;30.38;19.27;;;;;;;;;;4999165;28;20315;-62
2022/10/15 04:51:13;;;;;;;25.92;18.75;;;;;;;;;;4996434;28;20220;-62
2022/10/15 04:53:38;;;;;;;23.52;17.02;;;;;;;;;;4998501;28;20216;-62
2022/10/15 04:56:04;;;;;;;32.90;20.98;;;;;;;;;;4995137;28;20228;-62
2022/10/15 04:58:30;;;;;;;28.52;18.75;;;;;;;;;;4991389;28;20215;-62
2022/10/15 05:00:58;;;;;;;24.88;17.63;;;;;;;;;;4991259;28;20236;-62
2022/10/15 05:03:23;;;;;;;25.45;17.25;;;;;;;;;;4993884;28;20216;-62
2022/10/15 05:05:48;;;;;;;24.25;17.23;;;;;;;;;;4998870;28;20223;-62
2022/10/15 05:08:13;;;;;;;29.63;18.85;;;;;;;;;;4997435;28;20224;-62
2022/10/15 05:10:39;;;;;;;31.30;18.13;;;;;;;;;;4998795;28;20208;-62
2022/10/15 05:13:04;;;;;;;27.77;17.83;;;;;;;;;;4998316;28;20235;-62
2022/10/15 05:15:29;;;;;;;29.10;19.45;;;;;;;;;;4997163;28;20212;-62
2022/10/15 05:17:55;;;;;;;30.20;19.17;;;;;;;;;;4998417;28;20589;-62
2022/10/15 05:20:20;;;;;;;25.33;17.95;;;;;;;;;;4991572;28;20216;-62
2022/10/15 05:22:45;;;;;;;26.92;18.60;;;;;;;;;;4990621;28;20243;-62
2022/10/15 05:25:10;;;;;;;28.75;19.40;;;;;;;;;;4991289;28;20804;-62
2022/10/15 05:27:36;;;;;;;30.67;21.25;;;;;;;;;;4997943;28;20304;-62
2022/10/15 05:30:01;;;;;;;31.17;20.75;;;;;;;;;;4997346;28;20792;-62
2022/10/15 05:32:26;;;;;;;32.42;22.13;;;;;;;;;;4998285;28;20223;-62
2022/10/15 05:34:52;;;;;;;28.75;20.35;;;;;;;;;;4997958;28;20220;-62
2022/10/15 05:37:17;;;;;;;26.67;19.65;;;;;;;;;;4996944;28;20304;-62
2022/10/15 05:39:42;;;;;;;30.38;20.58;;;;;;;;;;4998111;28;20278;-62
2022/10/15 05:42:09;;;;;;;30.20;20.75;;;;;;;;;;4993501;28;20216;-62
2022/10/15 05:44:34;;;;;;;34.40;23.88;;;;;;;;;;4990250;28;20205;-62
2022/10/15 05:46:59;;;;;;;31.27;21.77;;;;;;;;;;4990874;28;20213;-62
2022/10/15 05:49:24;;;;;;;36.20;22.52;;;;;;;;;;4994693;28;20853;-62
2022/10/15 05:51:50;;;;;;;35.40;22.58;;;;;;;;;;4998109;28;20237;-62
2022/10/15 05:54:15;;;;;;;36.35;23.83;;;;;;;;;;4998047;28;20251;-62
2022/10/15 05:56:40;;;;;;;33.17;23.83;;;;;;;;;;4997384;28;20218;-62
2022/10/15 05:59:05;;;;;;;40.53;24.83;;;;;;;;;;4997970;28;20220;-62
2022/10/15 06:01:30;;;;;;;38.80;24.85;;;;;;;;;;4998633;28;21148;-62
2022/10/15 06:03:56;;;;;;;36.63;23.73;;;;;;;;;;4995587;28;20595;-62
2022/10/15 06:06:22;;;;;;;34.33;23.42;;;;;;;;;;4991291;28;20790;-62
2022/10/15 06:08:47;;;;;;;32.20;22.23;;;;;;;;;;4991086;28;20219;-62
2022/10/15 06:11:13;;;;;;;31.77;20.98;;;;;;;;;;4992273;28;20224;-62
2022/10/15 06:13:38;;;;;;;33.75;23.20;;;;;;;;;;4996539;28;20215;-62
2022/10/15 06:16:04;;;;;;;43.78;26.77;;;;;;;;;;4997406;28;20266;-62
2022/10/15 06:18:29;;;;;;;45.70;26.95;;;;;;;;;;4997012;28;20212;-62
2022/10/15 06:20:54;;;;;;;41.35;26.40;;;;;;;;;;5001279;28;20221;-62
2022/10/15 06:23:20;;;;;;;34.75;23.52;;;;;;;;;;5006605;28;20299;-62
2022/10/15 06:25:46;;;;;;;37.28;25.23;;;;;;;;;;5008178;28;20216;-63
2022/10/15 06:28:11;;;;;;;42.77;28.47;;;;;;;;;;5008633;28;20438;-64
2022/10/15 06:30:36;;;;;;;36.50;25.25;;;;;;;;;;5011961;28;20622;-63
2022/10/15 06:33:01;;;;;;;43.90;28.75;;;;;;;;;;5010439;28;20220;-62
2022/10/15 06:35:29;;;;;;;40.63;30.60;;;;;;;;;;5010486;28;20423;-62
2022/10/15 06:37:54;;;;;;;40.33;27.92;;;;;;;;;;5009508;28;20236;-62
2022/10/15 06:40:20;;;;;;;42.65;28.48;;;;;;;;;;5014607;28;20304;-62
2022/10/15 06:42:45;;;;;;;49.20;30.48;;;;;;;;;;5021631;28;20270;-61
2022/10/15 06:45:10;;;;;;;44.85;29.45;;;;;;;;;;5035653;28;20220;-62
2022/10/15 06:47:36;;;;;;;49.42;31.08;;;;;;;;;;5023753;28;20204;-63
2022/10/15 06:50:02;;;;;;;43.85;29.40;;;;;;;;;;5020252;28;20212;-63
2022/10/15 06:52:28;;;;;;;43.95;28.92;;;;;;;;;;5021040;28;20285;-62
2022/10/15 06:54:53;;;;;;;41.45;28.08;;;;;;;;;;5021320;28;20211;-64
2022/10/15 06:57:19;;;;;;;40.78;28.17;;;;;;;;;;5022434;28;20201;-63
2022/10/15 06:59:44;;;;;;;40.72;26.98;;;;;;;;;;5020555;28;20725;-63
2022/10/15 07:02:09;;;;;;;44.50;28.73;;;;;;;;;;5021435;28;20219;-64
2022/10/15 07:04:35;;;;;;;46.38;28.58;;;;;;;;;;5020510;28;20215;-64
2022/10/15 07:07:00;;;;;;;44.22;28.77;;;;;;;;;;5034324;28;20278;-63
2022/10/15 07:09:25;;;;;;;42.00;27.83;;;;;;;;;;5022566;28;20554;-63
2022/10/15 07:11:51;;;;;;;44.75;28.23;;;;;;;;;;5021906;28;20228;-64
2022/10/15 07:14:16;;;;;;;46.13;32.03;;;;;;;;;;5023308;28;20760;-63
2022/10/15 07:16:41;;;;;;;39.08;26.58;;;;;;;;;;5015452;28;20232;-63
2022/10/15 07:19:07;;;;;;;37.00;25.83;;;;;;;;;;5015241;28;20715;-64
2022/10/15 07:21:32;;;;;;;41.47;26.17;;;;;;;;;;5013796;28;20212;-64
2022/10/15 07:23:59;;;;;;;41.25;26.73;;;;;;;;;;5015320;28;20216;-65
2022/10/15 07:26:25;;;;;;;40.08;26.30;;;;;;;;;;5014599;28;20665;-64
2022/10/15 07:28:50;;;;;;;39.28;26.95;;;;;;;;;;5014280;28;20745;-64
2022/10/15 07:31:15;;;;;;;38.72;25.70;;;;;;;;;;5014634;28;20633;-64
2022/10/15 07:33:41;;;;;;;38.80;24.85;;;;;;;;;;5015107;28;20279;-64
2022/10/15 07:36:07;;;;;;;42.42;27.50;;;;;;;;;;5014048;28;20240;-64
2022/10/15 07:38:32;;;;;;;38.85;26.15;;;;;;;;;;5014410;28;20672;-64
2022/10/15 07:40:59;;;;;;;39.90;26.17;;;;;;;;;;5015035;28;20291;-64
2022/10/15 07:43:24;;;;;;;37.95;25.70;;;;;;;;;;5013622;28;20208;-64
2022/10/15 07:45:50;;;;;;;39.92;26.13;;;;;;;;;;5015014;28;20734;-64
2022/10/15 07:48:15;;;;;;;40.22;26.05;;;;;;;;;;5014591;28;20255;-64
2022/10/15 07:50:40;;;;;;;35.80;23.52;;;;;;;;;;5014310;28;20234;-64
2022/10/15 07:53:06;;;;;;;37.30;25.13;;;;;;;;;;5014317;28;20698;-64
2022/10/15 07:55:31;;;;;;;35.10;23.45;;;;;;;;;;5014861;28;20310;-64
2022/10/15 07:57:57;;;;;;;37.53;23.92;;;;;;;;;;5013943;28;20671;-64
2022/10/15 08:00:22;;;;;;;33.17;21.38;;;;;;;;;;5014202;28;20255;-64
2022/10/15 08:02:47;;;;;;;34.60;22.40;;;;;;;;;;5014574;28;20224;-64
2022/10/15 08:05:13;;;;;;;33.28;21.80;;;;;;;;;;5013470;28;20236;-64
2022/10/15 08:07:40;;;;;;;31.75;22.45;;;;;;;;;;5014732;28;20684;-64
2022/10/15 08:10:06;;;;;;;30.85;21.58;;;;;;;;;;5013433;28;20302;-64
2022/10/15 08:12:31;;;;;;;29.83;19.45;;;;;;;;;;5014245;28;20315;-64
2022/10/15 08:14:56;;;;;;;28.40;19.40;;;;;;;;;;5014119;28;20212;-64
2022/10/15 08:17:21;;;;;;;26.02;18.67;;;;;;;;;;5013297;28;20208;-64
2022/10/15 08:19:47;;;;;;;27.27;19.63;;;;;;;;;;5014308;28;20247;-64
2022/10/15 08:22:12;;;;;;;25.00;18.77;;;;;;;;;;5013876;28;20212;-63
2022/10/15 08:24:37;;;;;;;25.65;17.80;;;;;;;;;;5013594;28;20212;-64
2022/10/15 08:27:02;;;;;;;23.10;16.90;;;;;;;;;;5013756;28;20216;-64
2022/10/15 08:29:28;;;;;;;22.98;16.90;;;;;;;;;;5014073;28;20671;-64
2022/10/15 08:31:53;;;;;;;22.77;17.60;;;;;;;;;;5013478;28;20216;-64
2022/10/15 08:34:18;;;;;;;26.20;17.80;;;;;;;;;;5013465;28;20216;-63
2022/10/15 08:36:43;;;;;;;23.77;16.88;;;;;;;;;;5014207;28;20284;-64
2022/10/15 08:39:09;;;;;;;23.13;17.35;;;;;;;;;;5012679;28;20220;-64
2022/10/15 08:41:39;;;;;;;23.25;17.65;;;;;;;;;;5013924;28;20231;-64
2022/10/15 08:44:05;;;;;;;24.33;17.95;;;;;;;;;;5012174;28;20216;-64
2022/10/15 08:46:34;;;;;;;22.55;16.35;;;;;;;;;;5013149;28;20304;-64
2022/10/15 08:49:00;;;;;;;20.83;16.02;;;;;;;;;;5011856;28;20224;-63
2022/10/15 08:51:26;;;;;;;19.77;17.23;;;;;;;;;;5006587;28;20716;-62
2022/10/15 08:53:53;;;;;;;19.13;15.10;;;;;;;;;;5008165;28;20205;-64
2022/10/15 08:56:20;;;;;;;19.63;15.07;;;;;;;;;;5007871;28;20742;-64
2022/10/15 08:58:50;;;;;;;19.15;14.90;;;;;;;;;;5009916;28;20246;-64
2022/10/15 09:01:15;;;;;;;21.70;15.27;;;;;;;;;;5006375;28;20257;-64
2022/10/15 09:03:45;;;;;;;20.08;15.48;;;;;;;;;;5008390;28;20209;-64
2022/10/15 09:06:13;;;;;;;19.70;15.30;;;;;;;;;;5008590;28;20220;-64
2022/10/15 09:08:43;;;;;;;18.60;15.63;;;;;;;;;;5008752;28;20897;-64
2022/10/15 09:11:10;;;;;;;18.60;15.18;;;;;;;;;;5009091;28;20677;-64
2022/10/15 09:13:39;;;;;;;18.75;14.98;;;;;;;;;;5008363;28;20232;-65
2022/10/15 09:16:08;;;;;;;21.15;16.08;;;;;;;;;;5021437;28;20647;-64
2022/10/15 09:18:33;;;;;;;18.75;15.50;;;;;;;;;;5028028;28;20204;-64
2022/10/15 09:20:59;;;;;;;21.42;16.80;;;;;;;;;;5027156;28;20210;-64
2022/10/15 09:23:25;;;;;;;21.58;16.20;;;;;;;;;;5027229;28;20207;-64
2022/10/15 09:25:54;;;;;;;19.40;16.13;;;;;;;;;;5029236;28;20250;-64
2022/10/15 09:28:19;;;;;;;22.05;16.17;;;;;;;;;;5026678;28;20250;-64
2022/10/15 09:30:47;;;;;;;21.10;16.08;;;;;;;;;;5027500;28;20216;-64
2022/10/15 09:33:26;;;;;;;23.38;16.58;;;;;;;;;;5013181;28;20221;-64
2022/10/15 09:35:52;;;;;;;20.98;16.92;;;;;;;;;;5010218;28;20241;-64
2022/10/15 09:38:26;;;;;;;22.15;17.83;;;;;;;;;;5004466;28;20217;-65
2022/10/15 09:41:05;;;;;;;19.00;15.07;;;;;;;;;;4995838;28;20208;-63
2022/10/15 09:43:34;;;;;;;20.52;15.05;;;;;;;;;;4994909;28;20733;-64
2022/10/15 09:46:00;;;;;;;17.92;13.30;;;;;;;;;;4996684;28;20219;-64
2022/10/15 09:48:25;;;;;;;18.17;13.25;;;;;;;;;;4994097;28;20208;-64
2022/10/15 09:50:55;;;;;;;18.17;12.27;;;;;;;;;;4994544;28;20290;-64
2022/10/15 09:53:25;;;;;;;14.65;11.18;;;;;;;;;;4994590;28;20232;-64
2022/10/15 09:55:52;;;;;;;16.52;12.40;;;;;;;;;;4993105;28;20589;-64
2022/10/15 09:58:20;;;;;;;14.18;10.98;;;;;;;;;;4993129;28;20208;-64
2022/10/15 10:00:52;;;;;;;16.10;11.85;;;;;;;;;;4996245;28;20402;-64
2022/10/15 10:03:17;;;;;;;14.73;10.13;;;;;;;;;;4990709;28;20852;-64
2022/10/15 10:05:44;;;;;;;14.43;11.55;;;;;;;;;;4991089;28;20219;-64
2022/10/15 10:08:15;;;;;;;15.45;10.27;;;;;;;;;;4994799;28;20247;-64
2022/10/15 10:10:41;;;;;;;14.25;10.10;;;;;;;;;;4990021;28;20235;-64
2022/10/15 10:13:19;;;;;;;12.77;9.70;;;;;;;;;;4989961;28;20228;-64
2022/10/15 10:15:44;;;;;;;13.13;9.57;;;;;;;;;;4993528;28;20274;-61
2022/10/15 10:18:20;;;;;;;14.98;9.73;;;;;;;;;;4986284;28;20205;-67
2022/10/15 10:20:58;;;;;;;13.30;9.52;;;;;;;;;;4976275;28;20230;-66
2022/10/15 10:23:24;;;;;;;15.57;9.95;;;;;;;;;;4982356;28;20223;-65
2022/10/15 10:25:49;;;;;;;16.88;10.45;;;;;;;;;;4982908;28;20213;-65
2022/10/15 10:28:16;;;;;;;15.07;9.70;;;;;;;;;;4988732;28;20235;-65
2022/10/15 10:30:46;;;;;;;14.90;9.90;;;;;;;;;;4990703;28;20617;-65
2022/10/15 10:33:12;;;;;;;14.30;10.35;;;;;;;;;;4988864;28;20228;-66
2022/10/15 10:35:44;;;;;;;12.85;9.30;;;;;;;;;;4989892;28;20222;-66
2022/10/15 10:38:22;;;;;;;14.98;9.60;;;;;;;;;;4990560;28;20220;-66
2022/10/15 10:40:52;;;;;;;13.00;9.10;;;;;;;;;;4988410;28;20223;-68
2022/10/15 10:43:18;;;;;;;15.85;10.27;;;;;;;;;;4985094;28;20219;-65
2022/10/15 10:45:56;;;;;;;12.93;9.07;;;;;;;;;;4981399;28;20224;-66
2022/10/15 10:48:26;;;;;;;16.33;10.60;;;;;;;;;;4986444;28;20277;-66
2022/10/15 10:51:01;;;;;;;16.50;10.15;;;;;;;;;;4988486;28;20247;-65
2022/10/15 10:53:26;;;;;;;14.32;9.95;;;;;;;;;;4987461;28;20227;-65
2022/10/15 10:55:52;;;;;;;14.07;9.98;;;;;;;;;;4992066;28;20217;-65
2022/10/15 10:58:19;;;;;;;14.25;10.07;;;;;;;;;;4989108;28;20662;-65
2022/10/15 11:00:45;;;;;;;15.20;10.48;;;;;;;;;;4989184;28;20676;-66
2022/10/15 11:03:15;;;;;;;12.68;9.35;;;;;;;;;;4991200;28;20216;-65
2022/10/15 11:05:41;;;;;;;14.48;9.93;;;;;;;;;;4979659;28;20400;-65
2022/10/15 11:08:17;;;;;;;15.32;9.75;;;;;;;;;;4978499;28;20217;-65
2022/10/15 11:10:48;;;;;;;16.38;10.27;;;;;;;;;;4981655;28;20859;-65
2022/10/15 11:13:40;;;;;;;16.30;11.25;;;;;;;;;;4985950;28;20386;-66
2022/10/15 11:16:11;;;;;;;18.95;11.35;;;;;;;;;;4991152;28;20232;-65
2022/10/15 11:18:47;;;;;;;13.25;9.05;;;;;;;;;;4990637;28;20506;-64
2022/10/15 11:21:13;;;;;;;15.52;9.95;;;;;;;;;;4992287;28;20212;-64
2022/10/15 11:23:50;;;;;;;12.60;8.80;;;;;;;;;;4991532;28;20227;-64
2022/10/15 11:26:27;;;;;;;11.30;7.85;;;;;;;;;;4992461;28;20216;-64
2022/10/15 11:28:58;;;;;;;10.85;7.57;;;;;;;;;;4980376;28;20208;-64
2022/10/15 11:31:27;;;;;;;9.43;7.03;;;;;;;;;;4981155;28;20737;-64
2022/10/15 11:33:56;;;;;;;10.00;7.15;;;;;;;;;;4984384;28;20820;-64
2022/10/15 11:36:39;;;;;;;12.38;7.82;;;;;;;;;;4985931;28;20648;-64
2022/10/15 11:39:16;;;;;;;9.52;7.13;;;;;;;;;;4990898;28;20676;-64
2022/10/15 11:41:50;;;;;;;10.32;6.72;;;;;;;;;;4987004;28;20219;-65
2022/10/15 11:44:34;;;;;;;10.68;6.45;;;;;;;;;;4991926;28;20215;-64
2022/10/15 11:47:02;;;;;;;10.10;5.90;;;;;;;;;;4992152;28;20596;-64
2022/10/15 11:49:44;;;;;;;8.57;5.68;;;;;;;;;;4989310;28;20430;-64
2022/10/15 11:52:23;;;;;;;7.05;5.13;;;;;;;;;;4985116;28;20262;-64
2022/10/15 11:54:54;;;;;;;7.28;5.60;;;;;;;;;;4985704;28;20629;-64
2022/10/15 11:57:20;;;;;;;7.25;5.28;;;;;;;;;;4985503;28;20236;-64
2022/10/15 11:59:47;;;;;;;8.73;5.53;;;;;;;;;;4989157;28;20753;-64
2022/10/15 12:02:21;;;;;;;8.52;5.50;;;;;;;;;;4986462;28;20224;-64
2022/10/15 12:04:47;;;;;;;6.93;4.35;;;;;;;;;;4990157;28;20584;-65
2022/10/15 12:07:15;;;;;;;7.85;5.22;;;;;;;;;;4985869;28;20270;-65
2022/10/15 12:09:40;;;;;;;8.00;4.70;;;;;;;;;;4990121;28;20214;-67
2022/10/15 12:12:21;;;;;;;8.50;4.75;;;;;;;;;;4993290;28;20233;-65
2022/10/15 12:14:51;;;;;;;8.20;4.60;;;;;;;;;;4983877;28;20310;-65
2022/10/15 12:17:22;;;;;;;7.63;4.47;;;;;;;;;;4985130;28;20315;-65
2022/10/15 12:19:55;;;;;;;6.45;4.00;;;;;;;;;;4985508;28;20217;-65
2022/10/15 12:22:30;;;;;;;7.75;3.85;;;;;;;;;;4992227;28;20697;-65
2022/10/15 12:24:56;;;;;;;7.70;4.03;;;;;;;;;;4991595;28;20306;-65
2022/10/15 12:27:22;;;;;;;5.85;3.83;;;;;;;;;;4989160;28;20295;-65
2022/10/15 12:29:48;;;;;;;6.00;4.00;;;;;;;;;;4992565;28;20224;-64
2022/10/15 12:32:21;;;;;;;5.85;3.75;;;;;;;;;;4990619;28;20287;-65
2022/10/15 12:34:47;;;;;;;5.07;3.28;;;;;;;;;;4987328;28;20618;-65
2022/10/15 12:37:15;;;;;;;5.03;3.38;;;;;;;;;;4981276;28;20212;-64
2022/10/15 12:39:41;;;;;;;8.25;4.15;;;;;;;;;;4985153;28;20397;-64
2022/10/15 12:42:15;;;;;;;5.93;3.78;;;;;;;;;;4984191;28;20230;-64
2022/10/15 12:44:40;;;;;;;6.85;4.13;;;;;;;;;;4992347;28;20934;-64
2022/10/15 12:47:08;;;;;;;7.82;4.28;;;;;;;;;;4990007;28;20216;-65
2022/10/15 12:49:33;;;;;;;5.65;4.00;;;;;;;;;;4989661;28;20296;-65
2022/10/15 12:51:58;;;;;;;6.43;4.32;;;;;;;;;;4992150;28;20236;-64
2022/10/15 12:54:39;;;;;;;7.00;4.22;;;;;;;;;;4991902;28;20547;-64
2022/10/15 12:57:24;;;;;;;8.18;4.20;;;;;;;;;;4990630;28;20698;-65
2022/10/15 12:59:57;;;;;;;8.10;4.25;;;;;;;;;;4983791;28;20805;-64
2022/10/15 13:02:32;;;;;;;6.57;3.95;;;;;;;;;;4985292;28;20225;-64
2022/10/15 13:04:57;;;;;;;6.25;4.53;;;;;;;;;;4985866;28;20236;-65
2022/10/15 13:07:22;;;;;;;6.18;4.10;;;;;;;;;;4990354;28;20218;-65
2022/10/15 13:09:47;;;;;;;6.22;4.28;;;;;;;;;;4993794;28;20220;-65
2022/10/15 13:12:21;;;;;;;6.13;5.00;;;;;;;;;;4992504;28;20239;-65
2022/10/15 13:14:49;;;;;;;5.85;4.82;;;;;;;;;;4988798;28;20239;-64
2022/10/15 13:17:15;;;;;;;7.13;4.90;;;;;;;;;;4978268;28;20305;-65
2022/10/15 13:19:45;;;;;;;6.68;4.97;;;;;;;;;;4987562;28;20302;-65
2022/10/15 13:22:20;;;;;;;5.72;4.85;;;;;;;;;;4971167;28;20224;-65
2022/10/15 13:24:46;;;;;;;9.07;4.90;;;;;;;;;;4981472;28;20219;-65
2022/10/15 13:27:13;;;;;;;6.18;4.35;;;;;;;;;;4982804;28;20216;-64
2022/10/15 13:29:38;;;;;;;6.53;4.55;;;;;;;;;;5002912;28;20224;-65
2022/10/15 13:32:06;;;;;;;8.23;4.53;;;;;;;;;;4998095;28;20224;-64
2022/10/15 13:34:33;;;;;;;10.55;5.05;;;;;;;;;;4996836;28;20243;-64
2022/10/15 13:36:59;;;;;;;5.45;4.15;;;;;;;;;;4997278;28;20864;-64
2022/10/15 13:39:32;;;;;;;4.47;3.88;;;;;;;;;;5001808;28;20212;-65
2022/10/15 13:42:16;;;;;;;5.75;3.88;;;;;;;;;;5002330;28;20208;-64
2022/10/15 13:44:42;;;;;;;5.80;4.35;;;;;;;;;;4996793;28;20208;-64
2022/10/15 13:47:24;;;;;;;5.28;4.47;;;;;;;;;;4995687;28;20694;-64
2022/10/15 13:49:49;;;;;;;6.45;4.50;;;;;;;;;;4996422;28;20219;-63
2022/10/15 13:52:14;;;;;;;7.45;4.63;;;;;;;;;;5001615;28;20232;-63
2022/10/15 13:54:41;;;;;;;6.32;4.72;;;;;;;;;;5002579;28;20272;-63
2022/10/15 13:57:08;;;;;;;5.38;4.75;;;;;;;;;;5001017;28;20224;-63
2022/10/15 13:59:34;;;;;;;7.68;5.05;;;;;;;;;;5001385;28;20262;-63
2022/10/15 14:02:00;;;;;;;7.47;4.90;;;;;;;;;;5002028;28;20224;-63
2022/10/15 14:04:25;;;;;;;6.68;5.00;;;;;;;;;;5000549;28;20729;-62
2022/10/15 14:07:00;;;;;;;6.13;4.93;;;;;;;;;;4997982;28;20217;-63
2022/10/15 14:09:27;;;;;;;6.20;4.80;;;;;;;;;;4994640;28;20251;-63
2022/10/15 14:11:52;;;;;;;5.22;4.47;;;;;;;;;;4995570;28;20221;-62
2022/10/15 14:14:31;;;;;;;7.35;5.13;;;;;;;;;;5000240;28;20866;-63
2022/10/15 14:16:57;;;;;;;6.13;4.47;;;;;;;;;;4999893;28;20251;-62
2022/10/15 14:19:25;;;;;;;6.10;4.75;;;;;;;;;;5005860;28;21417;-63
2022/10/15 14:21:51;;;;;;;6.28;5.07;;;;;;;;;;5008840;28;20703;-63